Velkommen til

Stord Flyklubb

Om oss

Historien til Stord Flyklubb

Klubbens aner strekker seg tilbake til 1969 med sjøfly. Siden har vi sett vanlige motorfly og glidefly, men det er sportsfly som er hovedfokuset i dag

"Me har gjort det som menneskja har drøymd om frå gamalt av, det dei misunner fuglane, det vil seia, me har floge"

Salman Rushdie

Bli pilot

Alle kan lære å fly!

Ta en prøvetur hos oss og se hvor moro det er! Prøveturen gir deg en mulighet til å se om dette er noe du har lyst til å gå videre med.

Teorien tas av de fleste som hjemmeundervisning. Nytt læremateriell gjør opplæringen både enklere og mer strømlinjeformet.

Praksis kan påbegynnes mens man tar teorien, men teorien må være bestått før man kan fly solo. 

METAR Haugesund
ENHD 150250Z AUTO 35015KT 9999 OVC010/// 14/12 Q1017 ENHD 150220Z AUTO 35015KT 9999 OVC010/// 14/12 Q1017 ENHD 150150Z AUTO 35015KT 9999 OVC010/// 14/12 Q1017 ENHD 150120Z AUTO 35015KT 9999 OVC009/// 14/12 Q1017 ENHD 150050Z AUTO 35015KT 9999 OVC009/// 14/12 Q1017 ENHD 150020Z AUTO 35015KT 9999 OVC009/// 14/12 Q1017 TAF ENHD 150200Z 1503/1512 34015KT 9999 BKN012 TEMPO 1503/1506 BKN008 BECMG 1508/1510 FEW012
METAR Flesland
ENBR 150250Z 34007KT 9999 BKN011 13/11 Q1017 RMK WIND 1200FT 35008KT ENBR 150220Z 35007KT 320V020 9999 BKN011 13/11 Q1018 RMK WIND 1200FT 36009KT ENBR 150150Z 34008KT 9999 BKN011 13/11 Q1017 RMK WIND 1200FT 34010KT ENBR 150120Z 33008KT 9999 BKN010 13/11 Q1018 RMK WIND 1200FT 34010KT ENBR 150050Z 36007KT 9999 BKN010 13/11 Q1018 RMK WIND 1200FT 34010KT ENBR 150020Z 34009KT 9999 BKN010 13/11 Q1017 RMK WIND 1200FT 35010KT TAF ENBR 1500/1524 33010KT 9999 BKN012 PROB40 1500/1505 SCT012 BECMG 1505/1508 FEW012